You are listening to:
RJTT ATIS - Tokyo, Japan

RJTT 161400Z 36008KT 9999 FEW014 BKN030 BKN038 16/13 Q1013 NOSIG RMK 1CU014 6SC030 7SC038 A2992

If stream doesn't start automatically press the play button
If stream stops then reload player then press play